Time;durP1;ratioP1;P1;durP2;ratioP2;P2;SDS_P1;SDS_P2;PMS_P1;PMS_P2;Temp;Humidity;BMP_temperature;BMP_pressure;BME280_temperature;BME280_humidity;BME280_pressure;Samples;Min_cycle;Max_cycle;Signal;HPM_P1;HPM_P2
2022/04/03 00:01:33;;;;;;;2.37;1.30;;;;;;;11.14;49.52;93416.16;5115057;28;20224;-74
2022/04/03 00:03:59;;;;;;;1.13;1.13;;;;;;;10.73;51.17;93415.22;5112327;28;20190;-74
2022/04/03 00:06:24;;;;;;;1.70;1.10;;;;;;;11.06;51.18;93415.69;5136548;27;20183;-74
2022/04/03 00:08:50;;;;;;;1.43;1.33;;;;;;;11.11;51.93;93414.00;5124921;27;20176;-74
2022/04/03 00:11:16;;;;;;;1.97;1.13;;;;;;;10.89;52.95;93418.22;5126582;28;20172;-74
2022/04/03 00:13:42;;;;;;;1.63;1.10;;;;;;;10.59;55.21;93395.53;5129632;28;20172;-74
2022/04/03 00:16:08;;;;;;;1.20;1.10;;;;;;;10.63;55.26;93391.44;5131388;27;20168;-74
2022/04/03 00:18:33;;;;;;;1.60;1.20;;;;;;;10.75;54.04;93394.84;5133925;27;20410;-74
2022/04/03 00:21:00;;;;;;;1.53;1.20;;;;;;;10.64;55.29;93393.06;5122165;27;20417;-74
2022/04/03 00:23:25;;;;;;;1.30;1.20;;;;;;;10.52;56.27;93407.91;5122852;28;20168;-74
2022/04/03 00:25:52;;;;;;;1.93;1.40;;;;;;;9.99;58.50;93411.25;5117550;28;20466;-74
2022/04/03 00:28:21;;;;;;;0.97;0.97;;;;;;;10.45;56.67;93404.59;5115772;28;20180;-75
2022/04/03 00:30:46;;;;;;;3.50;1.73;;;;;;;10.81;55.36;93402.84;5119709;28;20437;-74
2022/04/03 00:33:13;;;;;;;2.77;2.00;;;;;;;10.29;57.63;93391.13;5121613;28;20432;-74
2022/04/03 00:35:38;;;;;;;4.50;2.63;;;;;;;10.49;57.05;93383.00;5119570;28;20259;-74
2022/04/03 00:38:04;;;;;;;2.63;1.90;;;;;;;10.61;56.61;93388.25;5122409;27;20453;-75
2022/04/03 00:40:30;;;;;;;2.40;1.90;;;;;;;10.38;56.88;93394.25;5115516;28;20411;-74
2022/04/03 00:42:56;;;;;;;6.13;2.13;;;;;;;10.68;55.83;93399.41;5116640;28;20177;-74
2022/04/03 00:45:21;;;;;;;1.90;1.80;;;;;;;10.58;55.88;93393.13;5115630;28;20169;-74
2022/04/03 00:47:56;;;;;;;4.40;2.20;;;;;;;10.41;56.29;93403.44;5121893;28;20466;-74
2022/04/03 00:50:21;;;;;;;2.83;2.63;;;;;;;10.47;56.91;93402.53;5121285;28;20209;-74
2022/04/03 00:52:47;;;;;;;3.00;2.70;;;;;;;10.16;56.63;93397.31;5119219;28;20427;-75
2022/04/03 00:55:13;;;;;;;3.23;2.93;;;;;;;10.90;55.30;93391.00;5123152;27;20181;-74
2022/04/03 00:57:41;;;;;;;3.07;2.70;;;;;;;10.61;55.47;93398.72;5108747;28;20482;-74
2022/04/03 01:00:07;;;;;;;2.97;2.70;;;;;;;10.96;54.47;93397.16;5119366;28;20397;-74
2022/04/03 01:02:33;;;;;;;5.23;2.83;;;;;;;10.96;52.76;93405.78;5122188;27;20443;-74
2022/04/03 01:04:58;;;;;;;4.17;2.30;;;;;;;10.57;53.55;93404.59;5119456;28;20489;-74
2022/04/03 01:07:24;;;;;;;2.37;1.90;;;;;;;10.81;52.70;93408.06;5122002;28;20219;-74
2022/04/03 01:09:49;;;;;;;2.23;2.13;;;;;;;10.84;53.62;93407.63;5120980;28;20185;-74
2022/04/03 01:12:15;;;;;;;3.37;2.50;;;;;;;10.75;54.00;93405.31;5121484;28;20172;-74
2022/04/03 01:14:43;;;;;;;2.27;1.30;;;;;;;10.31;52.95;93422.28;5111732;28;20652;-74
2022/04/03 01:17:12;;;;;;;2.00;1.73;;;;;;;10.02;51.40;93422.06;5134892;27;20203;-74
2022/04/03 01:19:41;;;;;;;1.47;1.37;;;;;;;9.92;51.84;93421.75;5114947;28;20430;-74
2022/04/03 01:22:07;;;;;;;3.03;1.40;;;;;;;10.01;51.58;93410.00;5118691;28;20500;-74
2022/04/03 01:24:33;;;;;;;1.63;1.30;;;;;;;10.42;50.41;93421.53;5115793;28;20476;-74
2022/04/03 01:26:59;;;;;;;2.57;1.53;;;;;;;9.62;52.94;93419.13;5122289;28;20620;-74
2022/04/03 01:29:25;;;;;;;1.37;1.27;;;;;;;9.27;52.80;93414.47;5121071;28;20445;-74
2022/04/03 01:31:51;;;;;;;1.20;1.10;;;;;;;9.63;52.08;93412.88;5121992;28;20436;-74
2022/04/03 01:34:17;;;;;;;1.80;1.10;;;;;;;9.85;51.57;93406.19;5124914;28;20639;-74
2022/04/03 01:36:44;;;;;;;1.63;1.20;;;;;;;9.66;51.98;93421.09;5115115;28;20426;-74
2022/04/03 01:39:10;;;;;;;3.20;1.20;;;;;;;9.59;53.62;93428.19;5110809;28;20432;-74
2022/04/03 01:41:40;;;;;;;3.00;1.20;;;;;;;9.39;54.22;93438.88;5116046;28;20434;-74
2022/04/03 01:44:07;;;;;;;3.07;1.37;;;;;;;9.54;53.03;93431.47;5123975;28;20414;-74
2022/04/03 01:46:33;;;;;;;4.77;1.13;;;;;;;9.35;54.04;93432.47;5125917;28;20528;-75
2022/04/03 01:48:58;;;;;;;3.57;1.60;;;;;;;9.62;52.92;93435.59;5127329;28;20434;-74
2022/04/03 01:51:23;;;;;;;2.63;1.20;;;;;;;9.36;53.23;93419.19;5127272;28;20175;-74
2022/04/03 01:53:49;;;;;;;1.83;1.70;;;;;;;9.65;52.93;93418.69;5114787;27;20230;-74
2022/04/03 01:56:14;;;;;;;3.83;1.60;;;;;;;9.30;53.87;93409.63;5119814;28;20165;-74
2022/04/03 01:58:40;;;;;;;2.10;1.13;;;;;;;9.77;53.73;93409.91;5120579;28;20184;-74
2022/04/03 02:01:05;;;;;;;2.03;1.37;;;;;;;8.93;55.41;93414.00;5112783;28;20254;-74
2022/04/03 02:03:31;;;;;;;1.17;1.13;;;;;;;9.45;53.29;93401.44;5112745;28;20528;-74
2022/04/03 02:05:57;;;;;;;2.13;1.20;;;;;;;9.63;53.83;93402.44;5111710;28;20195;-74
2022/04/03 02:08:23;;;;;;;6.00;1.40;;;;;;;9.66;53.80;93402.00;5115232;28;20419;-74
2022/04/03 02:10:49;;;;;;;3.40;1.40;;;;;;;9.53;54.30;93403.75;5118861;28;20605;-74
2022/04/03 02:13:15;;;;;;;1.87;1.20;;;;;;;9.69;53.54;93398.94;5116002;28;20417;-74
2022/04/03 02:15:40;;;;;;;2.70;1.03;;;;;;;9.96;53.44;93395.00;5126840;28;20230;-74
2022/04/03 02:18:07;;;;;;;1.43;1.23;;;;;;;9.91;52.87;93394.06;5125442;28;20183;-74
2022/04/03 02:20:33;;;;;;;2.97;1.37;;;;;;;9.56;54.18;93402.50;5124946;28;20168;-74
2022/04/03 02:22:58;;;;;;;2.93;1.20;;;;;;;8.86;56.04;93401.03;5116097;28;20448;-74
2022/04/03 02:25:24;;;;;;;1.33;1.23;;;;;;;9.29;54.82;93381.91;5110068;28;20191;-74
2022/04/03 02:27:51;;;;;;;2.30;1.43;;;;;;;9.63;53.81;93386.78;5126662;28;20202;-74
2022/04/03 02:30:17;;;;;;;2.10;1.90;;;;;;;9.42;53.92;93382.81;5126392;28;20418;-74
2022/04/03 02:32:42;;;;;;;2.33;1.50;;;;;;;9.50;53.96;93396.34;5126282;28;20441;-74
2022/04/03 02:35:10;;;;;;;1.40;1.30;;;;;;;9.63;53.82;93402.44;5126413;28;20247;-74
2022/04/03 02:37:37;;;;;;;1.97;1.67;;;;;;;9.78;53.17;93408.06;5112328;28;20296;-74
2022/04/03 02:40:05;;;;;;;2.17;1.37;;;;;;;9.90;52.73;93408.94;5126251;28;20410;-73
2022/04/03 02:42:30;;;;;;;1.47;1.00;;;;;;;9.49;52.80;93407.03;5111281;28;20463;-74
2022/04/03 02:44:56;;;;;;;3.57;1.17;;;;;;;9.48;53.39;93406.22;5125283;28;20461;-73
2022/04/03 02:47:25;;;;;;;1.10;1.00;;;;;;;9.76;51.80;93410.91;5110742;28;20457;-74
2022/04/03 02:49:51;;;;;;;1.37;1.00;;;;;;;9.94;51.34;93404.88;5124806;28;20211;-73
2022/04/03 02:52:18;;;;;;;1.70;1.07;;;;;;;10.22;49.93;93400.06;5120091;28;20440;-74
2022/04/03 02:54:45;;;;;;;0.80;0.80;;;;;;;10.01;50.84;93399.53;5116938;28;20434;-74
2022/04/03 02:57:19;;;;;;;1.20;1.10;;;;;;;10.28;50.36;93399.16;5126300;28;20418;-74
2022/04/03 02:59:45;;;;;;;2.60;1.20;;;;;;;10.27;50.49;93408.84;5112650;28;20417;-73
2022/04/03 03:02:11;;;;;;;3.47;1.33;;;;;;;10.02;50.31;93395.91;5125732;28;20461;-74
2022/04/03 03:04:37;;;;;;;1.30;0.87;;;;;;;10.07;50.21;93408.31;5119100;28;20278;-73
2022/04/03 03:07:05;;;;;;;1.00;0.90;;;;;;;10.42;49.64;93407.69;5118969;28;20493;-74
2022/04/03 03:09:30;;;;;;;1.03;1.00;;;;;;;10.06;49.49;93410.13;5111856;28;20432;-73
2022/04/03 03:11:56;;;;;;;1.17;1.00;;;;;;;10.38;49.37;93403.88;5112996;28;20427;-73
2022/04/03 03:14:22;;;;;;;2.80;0.87;;;;;;;10.48;49.59;93399.72;5112010;28;20588;-74
2022/04/03 03:16:48;;;;;;;0.70;0.70;;;;;;;10.21;49.66;93395.88;5130223;28;20429;-74
2022/04/03 03:19:15;;;;;;;1.43;1.27;;;;;;;10.43;49.43;93407.44;5114904;28;20270;-74
2022/04/03 03:21:41;;;;;;;1.27;1.00;;;;;;;10.39;49.53;93402.88;5117863;28;20426;-73
2022/04/03 03:24:07;;;;;;;2.30;0.90;;;;;;;10.25;50.32;93408.28;5112924;28;20443;-74
2022/04/03 03:26:32;;;;;;;1.23;1.07;;;;;;;10.47;49.65;93402.53;5125608;28;21359;-73
2022/04/03 03:28:57;;;;;;;1.00;0.80;;;;;;;10.75;48.83;93397.47;5123489;28;20184;-74
2022/04/03 03:31:23;;;;;;;0.90;0.80;;;;;;;10.78;48.58;93404.09;5118179;28;20176;-74
2022/04/03 03:33:48;;;;;;;0.80;0.80;;;;;;;10.34;49.62;93409.59;5119037;28;20180;-74
2022/04/03 03:36:14;;;;;;;0.90;0.90;;;;;;;10.49;48.94;93410.97;5128424;28;20192;-74
2022/04/03 03:38:40;;;;;;;2.40;0.83;;;;;;;9.77;51.29;93417.75;5115601;27;20233;-73
2022/04/03 03:41:06;;;;;;;0.90;0.90;;;;;;;10.38;48.61;93420.41;5116665;28;20209;-73
2022/04/03 03:43:32;;;;;;;0.80;0.80;;;;;;;10.18;47.81;93420.63;5129632;28;20414;-73
2022/04/03 03:45:58;;;;;;;0.70;0.70;;;;;;;10.16;48.20;93428.69;5109861;28;20447;-73
2022/04/03 03:48:24;;;;;;;0.97;0.70;;;;;;;10.44;47.75;93424.72;5121127;28;20420;-74
2022/04/03 03:50:49;;;;;;;1.00;1.00;;;;;;;9.70;48.93;93429.28;5114015;28;20811;-73
2022/04/03 03:53:14;;;;;;;0.60;0.60;;;;;;;9.91;48.42;93431.44;5119082;28;20183;-73
2022/04/03 03:55:40;;;;;;;0.70;0.70;;;;;;;9.95;48.82;93442.25;5141727;27;20168;-73
2022/04/03 03:58:05;;;;;;;2.03;0.80;;;;;;;9.96;48.34;93455.09;5129509;28;20180;-73
2022/04/03 04:00:31;;;;;;;1.07;0.70;;;;;;;9.73;48.23;93440.09;5113958;28;20216;-73
2022/04/03 04:02:56;;;;;;;0.70;0.70;;;;;;;9.89;47.31;93446.53;5121522;28;20180;-73
2022/04/03 04:05:22;;;;;;;0.60;0.60;;;;;;;9.90;47.43;93442.09;5109443;28;20937;-73
2022/04/03 04:07:48;;;;;;;0.60;0.60;;;;;;;10.02;47.72;93463.09;5124402;28;20259;-73
2022/04/03 04:10:16;;;;;;;0.70;0.70;;;;;;;10.03;47.02;93454.19;5129333;28;20238;-73
2022/04/03 04:12:45;;;;;;;0.87;0.87;;;;;;;10.07;46.22;93471.03;5122768;28;20513;-73
2022/04/03 04:15:12;;;;;;;0.70;0.70;;;;;;;10.15;46.84;93473.38;5122198;28;20422;-74
2022/04/03 04:17:41;;;;;;;0.70;0.70;;;;;;;9.69;47.90;93470.25;5122693;28;20430;-74
2022/04/03 04:20:09;;;;;;;0.80;0.80;;;;;;;10.14;45.88;93482.22;5121946;28;20414;-74
2022/04/03 04:22:35;;;;;;;0.97;0.70;;;;;;;9.99;46.46;93484.41;5129124;28;20426;-74
2022/04/03 04:25:01;;;;;;;1.33;0.70;;;;;;;9.97;46.48;93502.91;5116200;28;20452;-73
2022/04/03 04:27:27;;;;;;;0.63;0.63;;;;;;;9.70;47.69;93491.97;5126878;28;20462;-73
2022/04/03 04:29:52;;;;;;;0.93;0.83;;;;;;;9.80;47.32;93500.09;5128988;28;20444;-74
2022/04/03 04:32:21;;;;;;;0.80;0.80;;;;;;;10.34;45.53;93513.38;5128988;28;20195;-74
2022/04/03 04:34:48;;;;;;;0.87;0.77;;;;;;;10.48;45.81;93508.78;5118148;28;20639;-74
2022/04/03 04:37:14;;;;;;;1.20;0.60;;;;;;;10.00;46.52;93504.28;5125472;28;20478;-74
2022/04/03 04:39:39;;;;;;;0.87;0.87;;;;;;;10.15;46.58;93518.59;5127234;28;20482;-73
2022/04/03 04:42:05;;;;;;;1.07;0.97;;;;;;;10.27;46.17;93513.41;5126245;28;20231;-73
2022/04/03 04:44:30;;;;;;;0.70;0.70;;;;;;;9.82;47.60;93510.34;5116530;28;20210;-74
2022/04/03 04:46:56;;;;;;;0.70;0.70;;;;;;;10.01;47.12;93521.56;5126230;28;20207;-73
2022/04/03 04:49:21;;;;;;;1.53;0.80;;;;;;;10.34;46.91;93522.00;5115127;28;20661;-73
2022/04/03 04:51:47;;;;;;;0.70;0.67;;;;;;;10.38;46.23;93516.31;5128619;28;20176;-74
2022/04/03 04:54:12;;;;;;;0.80;0.80;;;;;;;10.21;46.69;93519.53;5120463;27;20229;-73
2022/04/03 04:56:39;;;;;;;1.30;0.70;;;;;;;10.27;46.04;93504.78;5136295;27;20264;-73
2022/04/03 04:59:05;;;;;;;0.70;0.70;;;;;;;10.39;46.15;93520.56;5122763;28;20177;-74
2022/04/03 05:01:30;;;;;;;1.10;0.80;;;;;;;10.97;44.86;93530.41;5119054;28;20552;-74
2022/04/03 05:03:57;;;;;;;0.80;0.80;;;;;;;10.42;46.39;93530.59;5124249;28;20185;-74
2022/04/03 05:06:26;;;;;;;0.90;0.90;;;;;;;10.75;45.49;93532.75;5118645;28;20264;-74
2022/04/03 05:08:53;;;;;;;1.10;1.00;;;;;;;9.74;46.60;93540.16;5119029;28;20426;-74
2022/04/03 05:11:19;;;;;;;2.20;1.20;;;;;;;10.41;45.46;93540.22;5117883;28;20422;-74
2022/04/03 05:13:45;;;;;;;0.83;0.83;;;;;;;10.08;45.14;93545.81;5125172;28;20494;-74
2022/04/03 05:16:11;;;;;;;1.73;1.10;;;;;;;10.45;44.67;93540.59;5107864;28;20426;-74
2022/04/03 05:18:36;;;;;;;2.20;0.70;;;;;;;9.96;44.82;93553.59;5112394;28;20419;-74
2022/04/03 05:21:04;;;;;;;0.97;0.97;;;;;;;10.08;44.61;93561.50;5120555;28;20184;-73
2022/04/03 05:23:30;;;;;;;0.67;0.67;;;;;;;10.26;44.14;93558.91;5120296;28;20180;-73
2022/04/03 05:25:56;;;;;;;2.10;0.87;;;;;;;10.37;44.59;93561.81;5125810;28;20465;-73
2022/04/03 05:28:22;;;;;;;1.60;1.10;;;;;;;10.13;45.63;93566.88;5114562;28;20439;-73
2022/04/03 05:30:48;;;;;;;0.80;0.80;;;;;;;10.01;44.49;93560.78;5121849;28;20410;-74
2022/04/03 05:33:15;;;;;;;2.10;0.90;;;;;;;10.09;44.55;93563.91;5121374;28;20219;-73
2022/04/03 05:35:41;;;;;;;2.10;1.00;;;;;;;10.41;45.07;93571.59;5122887;28;20414;-74
2022/04/03 05:38:07;;;;;;;1.10;1.00;;;;;;;10.61;44.52;93576.59;5112388;28;20520;-74
2022/04/03 05:40:32;;;;;;;1.17;0.60;;;;;;;10.77;43.86;93574.38;5115219;28;20419;-74
2022/04/03 05:42:59;;;;;;;0.97;0.90;;;;;;;11.25;42.99;93576.94;5121755;28;20176;-74
2022/04/03 05:45:25;;;;;;;0.90;0.90;;;;;;;11.29;42.82;93572.03;5127045;28;20263;-74
2022/04/03 05:47:51;;;;;;;1.20;1.10;;;;;;;11.09;42.91;93573.13;5111738;28;20492;-74
2022/04/03 05:50:17;;;;;;;0.87;0.87;;;;;;;11.06;44.18;93575.38;5107135;28;20412;-74
2022/04/03 05:52:44;;;;;;;1.70;0.90;;;;;;;11.14;44.15;93581.09;5121293;28;20426;-74
2022/04/03 05:55:11;;;;;;;8.43;1.70;;;;;;;11.49;43.34;93584.81;5122729;27;20183;-73
2022/04/03 05:57:37;;;;;;;3.97;1.20;;;;;;;11.19;44.49;93587.50;5122336;28;20445;-74
2022/04/03 06:00:05;;;;;;;1.17;0.93;;;;;;;11.16;42.93;93587.97;5116760;28;20421;-74
2022/04/03 06:02:42;;;;;;;2.60;0.77;;;;;;;11.33;42.11;93591.50;5122157;28;20466;-74
2022/04/03 06:05:08;;;;;;;1.63;0.73;;;;;;;11.08;42.70;93595.09;5108389;28;20502;-73
2022/04/03 06:07:34;;;;;;;1.20;0.90;;;;;;;10.69;43.02;93604.28;5126684;28;20499;-73
2022/04/03 06:09:59;;;;;;;1.20;1.00;;;;;;;11.00;43.12;93599.84;5125041;28;20426;-73
2022/04/03 06:12:24;;;;;;;1.13;0.87;;;;;;;10.99;42.51;93612.13;5126560;28;20228;-73
2022/04/03 06:14:50;;;;;;;1.53;0.90;;;;;;;11.14;42.17;93617.75;5126587;28;20235;-73
2022/04/03 06:17:15;;;;;;;1.27;0.90;;;;;;;10.99;43.06;93617.38;5126288;28;20176;-73
2022/04/03 06:19:41;;;;;;;1.10;0.97;;;;;;;10.97;42.98;93626.47;5115395;28;20203;-74
2022/04/03 06:22:06;;;;;;;2.33;0.80;;;;;;;11.67;41.74;93615.38;5115335;28;20213;-73
2022/04/03 06:24:32;;;;;;;1.00;0.80;;;;;;;11.02;42.84;93619.56;5117810;28;20200;-73
2022/04/03 06:26:57;;;;;;;1.17;0.60;;;;;;;11.44;41.63;93623.97;5121612;28;20211;-73
2022/04/03 06:29:23;;;;;;;1.57;1.00;;;;;;;10.98;43.43;93626.22;5124649;28;20184;-73
2022/04/03 06:31:48;;;;;;;9.67;2.60;;;;;;;11.65;41.80;93625.28;5124835;28;20244;-73
2022/04/03 06:34:14;;;;;;;2.57;1.10;;;;;;;11.40;43.00;93623.66;5124278;28;20184;-73
2022/04/03 06:36:39;;;;;;;1.43;0.87;;;;;;;11.44;42.62;93631.84;5116601;28;20176;-73
2022/04/03 06:39:04;;;;;;;0.70;0.60;;;;;;;11.37;42.86;93634.56;5119208;28;20176;-73
2022/04/03 06:41:32;;;;;;;1.00;0.90;;;;;;;11.40;43.80;93644.59;5125898;28;20176;-73
2022/04/03 06:43:59;;;;;;;0.83;0.80;;;;;;;11.67;43.71;93642.38;5120837;28;20184;-73
2022/04/03 06:46:24;;;;;;;0.80;0.80;;;;;;;11.52;43.59;93649.88;5125615;28;20453;-74
2022/04/03 06:48:51;;;;;;;1.03;0.70;;;;;;;11.58;43.43;93648.16;5111737;28;20431;-73
2022/04/03 06:51:16;;;;;;;0.80;0.80;;;;;;;11.41;44.16;93661.91;5118459;28;20184;-74
2022/04/03 06:53:42;;;;;;;1.47;0.80;;;;;;;12.12;42.05;93659.41;5126442;27;20437;-73
2022/04/03 06:56:07;;;;;;;0.70;0.70;;;;;;;11.84;42.91;93666.09;5124424;28;20172;-74
2022/04/03 06:58:33;;;;;;;0.70;0.70;;;;;;;11.72;43.49;93663.47;5121433;28;20183;-73
2022/04/03 07:00:58;;;;;;;0.80;0.80;;;;;;;11.13;44.80;93663.31;5125756;28;20208;-73
2022/04/03 07:03:24;;;;;;;0.80;0.70;;;;;;;10.87;45.28;93669.69;5119994;28;20195;-73
2022/04/03 07:05:49;;;;;;;1.10;1.00;;;;;;;11.35;44.51;93681.13;5121464;28;20240;-73
2022/04/03 07:08:16;;;;;;;0.70;0.70;;;;;;;11.84;43.86;93681.84;5126139;28;20577;-73
2022/04/03 07:10:43;;;;;;;0.60;0.60;;;;;;;11.28;45.47;93680.44;5125789;28;20232;-73
2022/04/03 07:13:10;;;;;;;2.50;1.00;;;;;;;11.39;46.09;93687.53;5114448;28;20419;-73
2022/04/03 07:15:36;;;;;;;1.43;1.43;;;;;;;11.39;45.78;93684.91;5116954;28;20420;-73
2022/04/03 07:18:01;;;;;;;0.90;0.90;;;;;;;11.16;46.53;93692.69;5104062;28;20419;-73
2022/04/03 07:20:27;;;;;;;0.77;0.77;;;;;;;11.18;45.99;93691.44;5117747;28;20191;-73
2022/04/03 07:22:53;;;;;;;0.93;0.90;;;;;;;11.24;47.19;93690.53;5112370;28;20185;-73
2022/04/03 07:25:18;;;;;;;0.87;0.87;;;;;;;11.32;45.81;93705.16;5121310;28;20177;-74
2022/04/03 07:27:43;;;;;;;1.40;0.80;;;;;;;11.53;45.46;93707.28;5120135;28;20219;-74
2022/04/03 07:30:12;;;;;;;2.60;1.47;;;;;;;11.52;45.47;93708.28;5120751;28;20181;-73
2022/04/03 07:32:38;;;;;;;1.43;1.30;;;;;;;11.81;44.83;93702.44;5118784;28;20201;-74
2022/04/03 07:35:04;;;;;;;1.10;1.00;;;;;;;12.06;44.20;93707.53;5121002;28;20482;-73
2022/04/03 07:37:30;;;;;;;1.37;1.27;;;;;;;11.84;45.08;93700.19;5112718;28;20489;-74
2022/04/03 07:39:55;;;;;;;1.20;1.10;;;;;;;11.33;45.49;93693.66;5111469;28;20183;-73
2022/04/03 07:42:21;;;;;;;1.87;1.20;;;;;;;11.90;44.49;93704.53;5110409;28;20431;-73
2022/04/03 07:44:46;;;;;;;3.53;1.00;;;;;;;12.06;44.18;93708.31;5113094;28;20176;-73
2022/04/03 07:47:12;;;;;;;1.40;1.30;;;;;;;12.07;43.69;93711.75;5120826;28;20206;-73
2022/04/03 07:49:38;;;;;;;0.50;0.50;;;;;;;11.48;44.14;93717.63;5116729;28;20192;-73
2022/04/03 07:52:04;;;;;;;1.77;1.00;;;;;;;11.99;43.49;93733.03;5110995;28;20181;-73
2022/04/03 07:54:29;;;;;;;0.60;0.60;;;;;;;11.25;44.54;93735.84;5120264;28;20180;-73
2022/04/03 07:56:55;;;;;;;0.90;0.90;;;;;;;11.60;44.37;93740.44;5118386;28;20517;-73
2022/04/03 07:59:21;;;;;;;1.23;1.10;;;;;;;11.81;44.52;93744.38;5135531;28;20615;-74
2022/04/03 08:01:46;;;;;;;1.33;0.80;;;;;;;12.08;42.95;93729.06;5127159;28;20219;-73
2022/04/03 08:04:13;;;;;;;0.70;0.70;;;;;;;12.49;42.02;93732.66;5110328;28;20188;-73
2022/04/03 08:06:39;;;;;;;0.93;0.90;;;;;;;13.05;41.64;93727.75;5125292;28;20200;-73
2022/04/03 08:09:05;;;;;;;1.73;1.00;;;;;;;13.14;41.39;93736.09;5124964;28;20545;-74
2022/04/03 08:11:31;;;;;;;2.80;1.70;;;;;;;13.17;41.60;93722.50;5108077;28;20521;-73
2022/04/03 08:13:56;;;;;;;0.93;0.83;;;;;;;13.23;39.77;93734.72;5113581;28;20426;-74
2022/04/03 08:16:22;;;;;;;1.93;0.70;;;;;;;12.79;40.11;93737.75;5126000;28;20179;-72
2022/04/03 08:18:47;;;;;;;1.67;0.90;;;;;;;12.81;40.45;93733.06;5127012;28;20191;-73
2022/04/03 08:21:12;;;;;;;0.60;0.60;;;;;;;13.12;39.08;93736.31;5108530;28;20173;-73
2022/04/03 08:23:38;;;;;;;2.60;0.90;;;;;;;13.05;39.37;93725.16;5117356;28;20244;-73
2022/04/03 08:26:04;;;;;;;1.33;1.10;;;;;;;13.13;39.60;93732.69;5120930;28;20655;-73
2022/04/03 08:28:29;;;;;;;1.00;0.80;;;;;;;13.27;39.64;93725.31;5112763;28;20242;-73
2022/04/03 08:30:55;;;;;;;1.80;1.40;;;;;;;13.63;38.00;93741.78;5119352;28;20197;-73
2022/04/03 08:33:21;;;;;;;1.50;0.80;;;;;;;13.46;38.30;93721.50;5114513;28;20177;-73
2022/04/03 08:35:49;;;;;;;1.03;0.70;;;;;;;12.92;39.05;93726.22;5121321;28;20275;-73
2022/04/03 08:38:14;;;;;;;1.43;1.30;;;;;;;13.57;38.62;93732.22;5119531;28;20486;-73
2022/04/03 08:40:42;;;;;;;0.70;0.70;;;;;;;13.00;39.51;93738.97;5119690;28;20410;-73
2022/04/03 08:43:08;;;;;;;2.23;0.93;;;;;;;13.55;39.04;93750.84;5115415;28;20651;-74
2022/04/03 08:45:34;;;;;;;1.27;1.10;;;;;;;13.47;38.47;93749.41;5116723;28;20414;-74
2022/04/03 08:48:01;;;;;;;0.90;0.90;;;;;;;12.99;40.00;93753.13;5115631;28;20472;-73
2022/04/03 08:50:29;;;;;;;0.97;0.97;;;;;;;12.74;40.98;93739.47;5112633;28;20189;-73
2022/04/03 08:52:58;;;;;;;1.27;0.90;;;;;;;13.32;38.85;93753.53;5110966;28;20887;-73
2022/04/03 08:55:24;;;;;;;1.00;0.90;;;;;;;13.77;38.76;93747.53;5106364;28;20445;-73
2022/04/03 08:57:50;;;;;;;1.63;1.03;;;;;;;13.76;38.82;93748.59;5108206;28;20411;-73
2022/04/03 09:00:16;;;;;;;1.17;1.07;;;;;;;14.15;36.41;93761.88;5121290;28;20189;-73
2022/04/03 09:02:45;;;;;;;1.07;0.90;;;;;;;13.22;38.01;93762.81;5110617;28;20662;-73
2022/04/03 09:05:11;;;;;;;1.10;0.87;;;;;;;13.84;37.12;93762.13;5121303;28;20632;-73
2022/04/03 09:07:37;;;;;;;1.47;1.37;;;;;;;14.42;36.86;93760.22;5116804;28;20526;-73
2022/04/03 09:10:13;;;;;;;1.73;0.90;;;;;;;14.59;37.15;93762.88;5119160;28;20236;-73
2022/04/03 09:12:45;;;;;;;1.07;0.70;;;;;;;14.80;34.73;93756.06;5119119;28;20438;-73
2022/04/03 09:15:14;;;;;;;1.00;0.90;;;;;;;14.46;35.46;93744.75;5126663;28;20417;-73
2022/04/03 09:18:10;;;;;;;3.27;0.90;;;;;;;15.57;33.70;93751.72;5116771;28;20431;-73
2022/04/03 09:20:40;;;;;;;0.67;0.67;;;;;;;15.64;33.80;93754.16;5115573;28;20453;-73
2022/04/03 09:23:08;;;;;;;0.93;0.73;;;;;;;15.88;33.00;93751.25;5126914;28;20422;-74
2022/04/03 09:25:39;;;;;;;0.80;0.80;;;;;;;15.75;32.95;93758.53;5113399;28;20418;-72
2022/04/03 09:28:13;;;;;;;4.53;0.63;;;;;;;16.07;32.69;93768.34;5125961;28;20478;-73
2022/04/03 09:30:42;;;;;;;0.90;0.70;;;;;;;16.46;31.88;93754.94;5114180;28;20493;-74
2022/04/03 09:33:10;;;;;;;0.90;0.90;;;;;;;16.30;31.93;93763.81;5128079;28;20517;-73
2022/04/03 09:35:58;;;;;;;1.20;1.10;;;;;;;15.64;34.75;93780.53;5107793;28;20411;-73
2022/04/03 09:38:27;;;;;;;3.33;1.00;;;;;;;13.40;40.49;93771.59;5119229;28;20419;-73
2022/04/03 09:40:53;;;;;;;2.10;1.10;;;;;;;13.86;39.91;93783.75;5115734;28;20420;-73
2022/04/03 09:43:27;;;;;;;2.80;0.80;;;;;;;13.29;39.93;93763.47;5122481;28;20422;-74
2022/04/03 09:46:01;;;;;;;1.33;0.63;;;;;;;13.01;41.03;93782.63;5106532;28;20407;-73
2022/04/03 09:48:40;;;;;;;1.20;1.10;;;;;;;12.95;40.20;93786.13;5107102;28;20793;-73
2022/04/03 09:51:10;;;;;;;1.77;0.70;;;;;;;13.08;40.45;93775.38;5134771;27;20418;-73
2022/04/03 09:54:02;;;;;;;0.90;0.90;;;;;;;12.89;40.14;93781.81;5121636;28;20422;-73
2022/04/03 09:56:34;;;;;;;3.20;0.67;;;;;;;12.99;38.80;93783.84;5118665;27;20426;-73
2022/04/03 09:59:08;;;;;;;1.07;0.83;;;;;;;12.56;38.25;93791.06;5127772;27;20417;-81
2022/04/03 10:01:35;;;;;;;0.73;0.70;;;;;;;12.76;37.88;93774.16;5123802;28;20461;-72
2022/04/03 10:04:03;;;;;;;0.70;0.70;;;;;;;13.32;36.18;93791.16;5122205;28;20423;-74
2022/04/03 10:06:30;;;;;;;1.87;1.03;;;;;;;12.94;36.50;93765.34;5117286;28;20494;-77
2022/04/03 10:08:56;;;;;;;0.70;0.70;;;;;;;12.11;38.68;93794.19;5127217;28;20418;-74
2022/04/03 10:11:22;;;;;;;0.80;0.80;;;;;;;12.85;37.59;93794.59;5122174;28;20422;-73
2022/04/03 10:13:48;;;;;;;0.90;0.90;;;;;;;12.26;37.08;93802.44;5121469;27;20426;-75
2022/04/03 10:16:15;;;;;;;0.67;0.67;;;;;;;12.22;38.12;93803.91;5110577;28;20168;-73
2022/04/03 10:18:42;;;;;;;1.13;1.13;;;;;;;11.81;43.10;93802.84;5127243;27;20436;-75
2022/04/03 10:21:23;;;;;;;2.83;2.60;;;;;;;12.46;42.49;93809.19;5127025;27;20515;-77
2022/04/03 10:23:52;;;;;;;2.53;1.90;;;;;;;12.28;42.84;93808.25;5124532;28;20398;-75
2022/04/03 10:26:20;;;;;;;2.40;1.60;;;;;;;12.22;43.32;93822.28;5122523;28;20565;-75
2022/04/03 10:28:54;;;;;;;5.10;1.93;;;;;;;12.97;42.02;93814.81;5118364;28;20422;-75
2022/04/03 10:31:19;;;;;;;2.20;1.87;;;;;;;12.48;42.72;93809.75;5137847;27;20482;-76
2022/04/03 10:33:50;;;;;;;1.93;1.80;;;;;;;12.55;42.79;93814.91;5125655;28;20410;-77
2022/04/03 10:36:24;;;;;;;4.17;2.00;;;;;;;13.50;41.00;93815.66;5123820;28;20192;-74
2022/04/03 10:39:04;;;;;;;2.97;2.73;;;;;;;13.71;40.36;93807.13;5123559;28;20426;-75
2022/04/03 10:41:34;;;;;;;2.83;2.40;;;;;;;13.71;40.92;93808.97;5118116;28;20421;-75
2022/04/03 10:44:19;;;;;;;3.03;2.73;;;;;;;14.09;40.29;93810.97;5126456;28;20470;-75
2022/04/03 10:47:06;;;;;;;2.67;2.47;;;;;;;13.44;40.87;93814.75;5124995;28;20445;-77
2022/04/03 10:49:40;;;;;;;3.33;2.00;;;;;;;12.68;42.38;93820.72;5126897;28;20414;-76
2022/04/03 10:52:42;;;;;;;1.50;1.40;;;;;;;12.52;42.18;93821.41;5142632;27;20469;-76
2022/04/03 10:55:25;;;;;;;1.90;1.80;;;;;;;11.26;44.96;93829.13;5120316;28;20429;-77
2022/04/03 10:58:02;;;;;;;1.60;1.50;;;;;;;11.67;44.35;93835.50;5138110;28;20420;-77
2022/04/03 11:00:27;;;;;;;2.60;2.40;;;;;;;11.48;45.66;93840.75;5126484;27;20424;-76
2022/04/03 11:03:01;;;;;;;1.80;1.70;;;;;;;12.12;44.60;93829.88;5127302;28;20465;-78
2022/04/03 11:05:26;;;;;;;2.23;2.03;;;;;;;12.11;44.92;93839.56;5125576;28;20173;-76
2022/04/03 11:08:02;;;;;;;2.13;1.43;;;;;;;11.84;45.53;93831.25;5124515;28;20511;-75
2022/04/03 11:10:54;;;;;;;1.80;1.70;;;;;;;11.67;45.84;93835.50;5125608;28;20180;-75
2022/04/03 11:13:32;;;;;;;2.00;1.90;;;;;;;11.63;46.00;93823.84;5117754;28;20511;-76
2022/04/03 11:16:05;;;;;;;1.80;1.70;;;;;;;12.43;44.64;93834.06;5140499;27;20413;-75
2022/04/03 11:18:43;;;;;;;1.50;1.40;;;;;;;12.53;43.65;93825.63;5126067;28;20417;-74
2022/04/03 11:21:22;;;;;;;1.20;1.10;;;;;;;12.56;42.15;93806.81;5124464;28;20421;-74
2022/04/03 11:24:07;;;;;;;1.33;1.23;;;;;;;12.87;42.35;93818.78;5121916;28;20406;-74
2022/04/03 11:26:35;;;;;;;1.80;1.70;;;;;;;12.20;44.41;93813.84;5123465;28;20442;-74
2022/04/03 11:29:00;;;;;;;2.17;2.07;;;;;;;11.37;46.53;93817.91;5125907;28;20430;-74
2022/04/03 11:31:27;;;;;;;3.67;2.80;;;;;;;11.91;45.81;93829.38;5125162;28;20481;-74
2022/04/03 11:33:53;;;;;;;2.10;2.00;;;;;;;11.40;46.28;93841.06;5125424;28;20422;-74
2022/04/03 11:36:23;;;;;;;2.10;1.90;;;;;;;11.56;46.82;93844.09;5127983;28;20418;-73